Archival Weather

Tokyo Intl

Tokyo, Japan (RJTT)

Report from: Sunday, March 19, 2023 3:30 PM JST
Current time: Sunday, July 14, 2024 10:59 AM JST

Current weather – Weather history – Daily summaries
Weather forecast

Temperature13.0°C (55.4°F)
Dew point-5.0°C (23.0°F)
Winds 4 kts (2.1 m/s, 4.6 mph) Vrb
Winds variableWinds variable from East-Southeast (110°) to Southwest (230°)
Visibility6.2 mi. (10 km)
Clouds Few clouds 3,000 ft. (914 m)
Altimeter30.03 in.Hg (1017 mB)
Relative humidity28 %
Density altitude-294 ft. (-90 m)
Remarks No significant changes expected in the next two hours
Flight conditions Visual Meteorological Conditions
Raw dataRJTT 190630Z 16004KT 110V230 9999 FEW030 13/M05 Q1017 NOSIG
An error has occurred. This application may no longer respond until reloaded. Reload 🗙